Time;durP1;ratioP1;P1;durP2;ratioP2;P2;SDS_P1;SDS_P2;PMS_P1;PMS_P2;Temp;Humidity;BMP_temperature;BMP_pressure;BME280_temperature;BME280_humidity;BME280_pressure;Samples;Min_cycle;Max_cycle;Signal;HPM_P1;HPM_P2
2022/05/15 00:01:29;;;;;;;7.62;2.98;;;;;;;10.90;64.54;99181.12;1779644;79;22666;-40
2022/05/15 00:03:56;;;;;;;7.80;2.85;;;;;;;10.76;65.16;99179.56;1739290;82;20970;-41
2022/05/15 00:06:23;;;;;;;5.78;2.62;;;;;;;10.72;65.61;99179.52;1739361;82;21130;-40
2022/05/15 00:08:50;;;;;;;6.33;3.30;;;;;;;10.68;65.81;99177.33;1739122;82;21030;-40
2022/05/15 00:11:17;;;;;;;8.28;2.83;;;;;;;10.61;66.20;99179.92;1739191;82;20970;-40
2022/05/15 00:13:44;;;;;;;8.38;2.95;;;;;;;10.54;66.81;99177.11;1739104;82;21034;-41
2022/05/15 00:16:11;;;;;;;10.13;2.90;;;;;;;10.49;67.10;99179.34;1739050;82;20946;-40
2022/05/15 00:18:41;;;;;;;7.00;2.77;;;;;;;10.46;67.36;99184.90;1739054;82;21099;-41
2022/05/15 00:21:08;;;;;;;8.10;3.10;;;;;;;10.47;67.33;99182.41;1739194;81;20986;-40
2022/05/15 00:23:36;;;;;;;8.88;3.00;;;;;;;10.47;67.40;99174.27;1739098;82;20939;-40
2022/05/15 00:26:03;;;;;;;8.13;3.02;;;;;;;10.40;67.61;99164.12;1738904;82;21399;-40
2022/05/15 00:28:30;;;;;;;7.97;2.98;;;;;;;10.34;67.80;99173.69;1738868;82;21037;-40
2022/05/15 00:30:57;;;;;;;6.62;3.55;;;;;;;10.31;68.17;99173.04;1738971;82;21222;-40
2022/05/15 00:33:24;;;;;;;4.60;2.62;;;;;;;10.29;68.53;99173.20;1739305;82;21462;-40
2022/05/15 00:35:53;;;;;;;5.50;2.35;;;;;;;10.27;68.56;99170.06;1739097;82;20970;-40
2022/05/15 00:38:20;;;;;;;6.72;2.72;;;;;;;10.31;68.61;99168.22;1738983;82;21066;-41
2022/05/15 00:40:47;;;;;;;5.83;3.00;;;;;;;10.33;68.67;99161.84;1738748;82;21030;-40
2022/05/15 00:43:39;;;;;;;4.83;2.83;;;;;;;10.31;68.89;99165.51;1739286;82;21099;-40
2022/05/15 00:46:09;;;;;;;7.05;2.90;;;;;;;10.29;68.88;99169.14;1734249;82;21092;-40
2022/05/15 00:48:36;;;;;;;6.35;3.00;;;;;;;10.25;69.05;99167.73;1739115;82;20995;-40
2022/05/15 00:51:23;;;;;;;6.47;2.87;;;;;;;10.21;69.35;99162.83;1739075;82;21013;-40
2022/05/15 00:53:52;;;;;;;6.22;3.27;;;;;;;10.17;69.51;99163.89;1723123;82;21046;-40
2022/05/15 00:56:22;;;;;;;9.38;3.62;;;;;;;10.18;69.81;99160.05;1739119;82;20970;-40
2022/05/15 00:58:54;;;;;;;7.25;3.17;;;;;;;10.19;70.03;99158.34;1738954;82;21041;-40
2022/05/15 01:01:21;;;;;;;4.85;3.30;;;;;;;10.15;70.46;99163.45;1752143;81;21028;-41
2022/05/15 01:03:48;;;;;;;7.78;3.62;;;;;;;10.10;70.88;99160.47;1755125;81;21015;-40
2022/05/15 01:06:16;;;;;;;5.45;3.00;;;;;;;10.08;71.15;99163.31;1755276;81;21081;-40
2022/05/15 01:08:43;;;;;;;6.67;2.90;;;;;;;10.06;71.44;99160.20;1754962;81;21234;-40
2022/05/15 01:11:13;;;;;;;6.12;3.50;;;;;;;10.08;71.40;99159.25;1754661;81;20932;-40
2022/05/15 01:13:42;;;;;;;6.40;3.85;;;;;;;10.09;71.54;99156.77;1754405;81;21509;-40
2022/05/15 01:16:09;;;;;;;7.78;3.30;;;;;;;10.07;71.65;99144.17;1754260;81;20979;-40
2022/05/15 01:18:38;;;;;;;6.72;2.98;;;;;;;10.03;71.66;99147.58;1743272;82;20976;-40
2022/05/15 01:21:21;;;;;;;10.03;3.70;;;;;;;9.98;71.71;99142.46;1743525;82;21127;-40
2022/05/15 01:23:48;;;;;;;7.75;3.05;;;;;;;9.96;71.96;99146.69;1743165;82;20978;-40
2022/05/15 01:26:16;;;;;;;8.30;3.37;;;;;;;10.01;72.14;99148.53;1743051;82;21077;-40
2022/05/15 01:28:45;;;;;;;7.10;3.30;;;;;;;10.06;72.24;99158.84;1743379;82;20926;-40
2022/05/15 01:31:14;;;;;;;11.80;4.45;;;;;;;10.09;72.26;99147.28;1743319;82;21077;-40
2022/05/15 01:33:41;;;;;;;9.55;4.30;;;;;;;10.08;72.31;99140.30;1743366;82;21127;-40
2022/05/15 01:36:08;;;;;;;8.20;3.40;;;;;;;10.08;72.28;99145.71;1743105;82;21500;-40
2022/05/15 01:38:37;;;;;;;7.30;3.75;;;;;;;10.10;72.11;99136.66;1743288;82;21013;-40
2022/05/15 01:41:03;;;;;;;8.18;3.80;;;;;;;10.16;71.77;99134.69;1738369;82;21085;-40
2022/05/15 01:43:32;;;;;;;7.85;3.25;;;;;;;10.24;71.54;99138.28;1743376;82;20985;-40
2022/05/15 01:45:59;;;;;;;6.42;3.47;;;;;;;10.27;71.23;99139.69;1743363;82;21971;-40
2022/05/15 01:48:26;;;;;;;11.15;4.25;;;;;;;10.27;71.25;99128.86;1743623;82;20970;-40
2022/05/15 01:50:53;;;;;;;10.15;3.83;;;;;;;10.23;71.18;99126.66;1743310;82;21013;-40
2022/05/15 01:53:22;;;;;;;7.47;3.85;;;;;;;10.18;71.11;99124.83;1743375;82;20938;-40
2022/05/15 01:55:50;;;;;;;8.50;3.90;;;;;;;10.16;71.14;99110.88;1743340;82;21085;-40
2022/05/15 01:58:16;;;;;;;8.53;3.60;;;;;;;10.19;71.09;99118.27;1743383;82;21179;-40
2022/05/15 02:00:44;;;;;;;8.38;4.20;;;;;;;10.21;71.13;99114.64;1745223;81;21514;-40
2022/05/15 02:03:11;;;;;;;7.72;3.83;;;;;;;10.24;70.95;99117.39;1749082;82;21519;-40
2022/05/15 02:05:39;;;;;;;11.50;4.12;;;;;;;10.19;70.97;99119.05;1749067;81;20969;-40
2022/05/15 02:08:07;;;;;;;7.45;4.08;;;;;;;10.12;71.08;99116.78;1749101;81;21041;-40
2022/05/15 02:10:33;;;;;;;10.03;3.67;;;;;;;10.08;71.11;99118.63;1749275;82;21210;-40
2022/05/15 02:13:01;;;;;;;10.03;3.90;;;;;;;10.08;71.20;99127.53;1748869;81;20965;-40
2022/05/15 02:15:27;;;;;;;5.80;3.72;;;;;;;10.08;71.23;99124.05;1748983;81;20961;-40
2022/05/15 02:17:56;;;;;;;9.98;4.10;;;;;;;10.04;71.19;99126.13;1746147;81;21040;-40
2022/05/15 02:20:24;;;;;;;9.90;4.10;;;;;;;10.00;71.18;99133.98;1748873;81;21013;-40
2022/05/15 02:22:52;;;;;;;9.50;4.10;;;;;;;9.95;71.37;99130.22;1749104;82;23154;-40
2022/05/15 02:25:18;;;;;;;6.90;3.75;;;;;;;9.93;71.56;99127.86;1748807;82;21547;-41
2022/05/15 02:27:46;;;;;;;6.65;3.83;;;;;;;9.93;71.64;99126.51;1748890;81;21033;-40
2022/05/15 02:30:14;;;;;;;9.40;4.50;;;;;;;9.97;71.70;99123.28;1749304;82;21084;-40
2022/05/15 02:32:42;;;;;;;6.03;4.05;;;;;;;10.01;71.69;99137.70;1749122;82;21005;-41
2022/05/15 02:35:09;;;;;;;8.98;4.03;;;;;;;10.00;71.80;99132.06;1749042;81;21223;-40
2022/05/15 02:37:37;;;;;;;13.53;4.55;;;;;;;9.98;71.79;99132.98;1749391;81;20968;-40
2022/05/15 02:40:06;;;;;;;7.62;3.90;;;;;;;9.97;71.74;99140.89;1749345;81;21016;-40
2022/05/15 02:42:32;;;;;;;7.25;3.65;;;;;;;9.97;71.95;99139.53;1749602;82;21002;-40
2022/05/15 02:45:00;;;;;;;8.18;4.50;;;;;;;9.98;72.12;99145.17;1749145;82;21041;-40
2022/05/15 02:47:27;;;;;;;8.40;3.83;;;;;;;10.01;72.23;99152.59;1749458;82;21757;-40
2022/05/15 02:52:39;;;;;;;9.35;4.08;;;;;;;10.02;72.13;99149.31;1748851;82;20981;-40
2022/05/15 02:55:07;;;;;;;8.70;4.40;;;;;;;9.99;72.21;99148.66;1748849;82;20942;-40
2022/05/15 02:57:34;;;;;;;9.73;4.35;;;;;;;10.02;72.31;99145.25;1749292;82;21001;-40
2022/05/15 03:00:01;;;;;;;9.35;4.10;;;;;;;10.08;72.14;99152.48;1748786;82;21131;-40
2022/05/15 03:02:29;;;;;;;8.78;3.90;;;;;;;10.13;72.03;99153.54;1748842;81;21025;-40
2022/05/15 03:04:56;;;;;;;6.90;3.70;;;;;;;10.16;72.16;99150.16;1749030;81;21842;-40
2022/05/15 03:07:24;;;;;;;8.55;4.25;;;;;;;10.20;72.04;99159.91;1749064;82;21512;-40
2022/05/15 03:09:50;;;;;;;11.40;5.10;;;;;;;10.22;71.95;99162.23;1748909;81;21346;-40
2022/05/15 03:12:17;;;;;;;11.15;4.08;;;;;;;10.26;71.76;99167.17;1749029;82;23128;-40
2022/05/15 03:14:45;;;;;;;7.53;4.10;;;;;;;10.32;71.45;99176.53;1748949;82;20969;-40
2022/05/15 03:17:11;;;;;;;11.08;4.30;;;;;;;10.36;71.40;99170.63;1749231;81;21527;-40
2022/05/15 03:19:40;;;;;;;8.98;4.78;;;;;;;10.35;71.55;99162.28;1748964;81;20945;-40
2022/05/15 03:22:08;;;;;;;7.80;4.28;;;;;;;10.34;71.45;99160.14;1749072;81;21013;-40
2022/05/15 03:24:35;;;;;;;7.97;3.60;;;;;;;10.33;71.46;99158.57;1748855;81;23108;-40
2022/05/15 03:27:02;;;;;;;8.73;3.70;;;;;;;10.35;71.45;99159.00;1746332;81;20946;-40
2022/05/15 03:29:29;;;;;;;9.30;3.98;;;;;;;10.39;71.26;99165.83;1749239;82;21000;-40
2022/05/15 03:31:57;;;;;;;6.28;3.70;;;;;;;10.40;71.46;99160.63;1749108;82;20966;-40
2022/05/15 03:34:24;;;;;;;10.15;4.25;;;;;;;10.44;71.37;99165.52;1749422;82;21053;-40
2022/05/15 03:36:52;;;;;;;9.28;3.85;;;;;;;10.44;71.28;99165.52;1749164;82;21234;-40
2022/05/15 03:39:21;;;;;;;8.20;3.40;;;;;;;10.43;71.33;99168.02;1749526;81;20973;-40
2022/05/15 03:41:49;;;;;;;6.53;3.62;;;;;;;10.44;71.29;99164.95;1748812;82;20961;-40
2022/05/15 03:44:16;;;;;;;10.75;3.83;;;;;;;10.51;71.11;99164.84;1749220;82;21069;-40
2022/05/15 03:46:43;;;;;;;9.43;4.20;;;;;;;10.56;71.06;99174.02;1746091;81;21029;-40
2022/05/15 03:49:13;;;;;;;10.08;4.40;;;;;;;10.56;70.98;99174.02;1749035;82;21238;-40
2022/05/15 03:51:41;;;;;;;8.85;3.87;;;;;;;10.57;70.94;99173.66;1748825;82;21496;-40
2022/05/15 03:54:09;;;;;;;11.00;4.40;;;;;;;10.57;71.04;99173.66;1748778;82;20961;-40
2022/05/15 03:56:51;;;;;;;8.33;3.90;;;;;;;10.60;70.93;99178.95;1748828;81;21013;-40
2022/05/15 03:59:27;;;;;;;9.00;3.98;;;;;;;10.66;70.60;99179.61;1749088;82;20972;-40
2022/05/15 04:01:54;;;;;;;13.10;4.28;;;;;;;10.69;70.60;99184.89;1739919;81;21120;-41
2022/05/15 04:04:22;;;;;;;11.90;4.17;;;;;;;10.74;70.69;99182.66;1734779;82;21520;-40
2022/05/15 04:06:48;;;;;;;10.32;4.40;;;;;;;10.75;70.49;99180.70;1734944;82;20934;-40
2022/05/15 04:09:15;;;;;;;8.35;3.80;;;;;;;10.77;70.51;99179.78;1734938;82;20934;-40
2022/05/15 04:11:43;;;;;;;6.87;3.62;;;;;;;10.81;70.13;99184.11;1734873;82;21026;-40
2022/05/15 04:14:10;;;;;;;8.60;4.00;;;;;;;10.86;70.01;99175.66;1734875;82;21308;-41
2022/05/15 04:16:39;;;;;;;10.53;3.75;;;;;;;10.87;70.00;99180.52;1735173;82;20961;-40
2022/05/15 04:19:06;;;;;;;10.10;3.77;;;;;;;10.89;69.95;99180.34;1735202;82;20938;-40
2022/05/15 04:21:37;;;;;;;6.65;3.77;;;;;;;10.93;69.83;99170.92;1734969;82;21563;-40
2022/05/15 04:24:03;;;;;;;10.13;3.90;;;;;;;10.99;69.76;99178.17;1734935;81;21089;-40
2022/05/15 04:26:29;;;;;;;12.75;3.98;;;;;;;11.05;69.70;99173.98;1735417;82;21182;-40
2022/05/15 04:28:57;;;;;;;6.80;3.67;;;;;;;11.12;69.53;99179.52;1734909;82;21511;-40
2022/05/15 04:31:23;;;;;;;7.75;3.95;;;;;;;11.16;69.39;99181.12;1734845;82;21318;-41
2022/05/15 04:33:51;;;;;;;7.92;3.58;;;;;;;11.21;69.27;99177.30;1734981;82;20914;-40
2022/05/15 04:36:18;;;;;;;7.58;4.05;;;;;;;11.25;68.94;99172.13;1734988;82;20999;-40
2022/05/15 04:38:45;;;;;;;6.85;3.65;;;;;;;11.27;68.96;99169.84;1734860;82;21124;-41
2022/05/15 04:41:12;;;;;;;11.22;3.80;;;;;;;11.34;68.86;99163.13;1734839;82;21008;-40
2022/05/15 04:43:39;;;;;;;9.23;3.65;;;;;;;11.41;68.68;99167.88;1735059;82;21603;-41
2022/05/15 04:46:07;;;;;;;8.00;3.70;;;;;;;11.41;68.39;99168.45;1735070;82;20957;-41
2022/05/15 04:48:35;;;;;;;7.10;3.70;;;;;;;11.41;68.28;99171.95;1735287;82;21050;-41
2022/05/15 04:51:03;;;;;;;7.33;3.20;;;;;;;11.42;68.55;99179.52;1735178;82;21948;-41
2022/05/15 04:53:33;;;;;;;10.15;3.80;;;;;;;11.48;68.64;99176.66;1735118;82;21001;-41
2022/05/15 04:56:00;;;;;;;8.80;3.98;;;;;;;11.58;68.55;99170.58;1735511;82;21488;-41
2022/05/15 04:58:28;;;;;;;9.93;4.47;;;;;;;11.68;67.92;99176.72;1735141;82;21563;-41
2022/05/15 05:00:54;;;;;;;10.03;4.33;;;;;;;11.72;67.78;99176.17;1735267;81;20993;-42
2022/05/15 05:03:21;;;;;;;13.58;3.98;;;;;;;11.80;67.44;99177.08;1743149;82;23128;-41
2022/05/15 05:05:48;;;;;;;11.38;3.50;;;;;;;11.85;67.60;99184.33;1743403;82;21476;-41
2022/05/15 05:08:15;;;;;;;12.85;3.80;;;;;;;11.99;67.48;99192.63;1743566;82;21187;-41
2022/05/15 05:10:43;;;;;;;8.13;3.62;;;;;;;12.13;67.16;99186.55;1743253;82;21034;-41
2022/05/15 05:13:13;;;;;;;9.10;3.95;;;;;;;12.31;66.43;99188.84;1743436;82;21030;-41
2022/05/15 05:15:41;;;;;;;9.65;3.15;;;;;;;12.42;66.09;99193.81;1743579;82;21086;-41
2022/05/15 05:18:08;;;;;;;8.28;3.83;;;;;;;12.51;65.31;99191.55;1743566;82;20934;-41
2022/05/15 05:20:34;;;;;;;7.58;3.27;;;;;;;12.59;64.90;99193.73;1743382;82;20989;-41
2022/05/15 05:23:01;;;;;;;9.38;3.55;;;;;;;12.64;65.04;99202.33;1743156;82;21602;-41
2022/05/15 05:25:28;;;;;;;9.25;3.58;;;;;;;12.72;65.06;99195.60;1743340;82;20990;-41
2022/05/15 05:27:56;;;;;;;7.83;3.67;;;;;;;12.83;64.59;99196.47;1743189;82;21235;-41
2022/05/15 05:30:24;;;;;;;5.33;3.50;;;;;;;12.99;63.83;99194.23;1743251;82;20935;-41
2022/05/15 05:32:50;;;;;;;7.67;3.45;;;;;;;13.08;64.06;99191.95;1743106;82;21786;-41
2022/05/15 05:35:21;;;;;;;10.75;4.00;;;;;;;13.12;63.32;99196.86;1743221;82;20914;-41
2022/05/15 05:37:48;;;;;;;7.83;3.85;;;;;;;13.16;62.78;99190.88;1743243;82;20982;-41
2022/05/15 05:40:15;;;;;;;8.15;3.75;;;;;;;13.17;62.75;99188.33;1743294;82;21520;-40
2022/05/15 05:42:42;;;;;;;5.72;3.15;;;;;;;13.14;62.83;99185.02;1743170;82;21001;-41
2022/05/15 05:45:09;;;;;;;7.47;3.60;;;;;;;13.13;63.13;99192.20;1743133;82;21065;-40
2022/05/15 05:47:36;;;;;;;7.70;3.10;;;;;;;13.14;63.01;99195.91;1743252;82;21002;-41
2022/05/15 05:50:08;;;;;;;11.03;3.30;;;;;;;13.22;63.14;99204.30;1743171;82;21029;-40
2022/05/15 05:52:39;;;;;;;14.25;3.22;;;;;;;13.29;62.35;99193.47;1743431;82;21153;-41
2022/05/15 05:55:07;;;;;;;11.08;3.40;;;;;;;13.35;62.76;99191.17;1721001;82;20961;-41
2022/05/15 05:57:34;;;;;;;7.80;3.85;;;;;;;13.42;61.93;99196.05;1713715;83;21052;-41
2022/05/15 06:00:01;;;;;;;6.33;3.05;;;;;;;13.47;62.03;99198.41;1713491;83;20953;-41
2022/05/15 06:02:28;;;;;;;10.63;3.33;;;;;;;13.55;61.50;99199.24;1713490;83;21061;-41
2022/05/15 06:04:55;;;;;;;6.08;2.92;;;;;;;13.63;61.58;99187.78;1713644;83;21302;-41
2022/05/15 06:07:25;;;;;;;11.85;3.02;;;;;;;13.71;61.58;99180.60;1713656;83;21083;-41
2022/05/15 06:09:52;;;;;;;6.35;2.60;;;;;;;13.86;60.60;99181.42;1713548;83;20985;-41
2022/05/15 06:12:23;;;;;;;5.62;2.85;;;;;;;14.04;59.76;99184.97;1713922;83;21519;-41
2022/05/15 06:14:50;;;;;;;;;;;;;;;14.17;59.95;99175.86;1716483;83;21041;-41
2022/05/15 06:17:23;;;;;;;8.05;2.95;;;;;;;14.31;59.34;99177.23;1713549;83;21215;-41
2022/05/15 06:19:50;;;;;;;7.87;3.15;;;;;;;14.32;59.42;99171.41;1712956;83;21598;-40
2022/05/15 06:22:16;;;;;;;8.80;2.90;;;;;;;14.47;58.32;99170.08;1713402;83;21551;-41
2022/05/15 06:24:44;;;;;;;6.33;2.83;;;;;;;14.55;57.89;99174.34;1713690;83;21014;-41
2022/05/15 06:27:11;;;;;;;7.83;2.60;;;;;;;14.60;57.71;99169.87;1713732;83;21096;-41
2022/05/15 06:29:38;;;;;;;5.58;2.40;;;;;;;14.67;58.02;99169.84;1713847;83;21252;-41
2022/05/15 06:32:07;;;;;;;7.05;2.62;;;;;;;14.78;56.89;99167.31;1713781;83;21036;-41
2022/05/15 06:34:34;;;;;;;8.20;2.95;;;;;;;14.89;57.39;99160.48;1713846;83;21004;-41
2022/05/15 06:37:01;;;;;;;10.85;3.05;;;;;;;14.99;56.59;99158.31;1713732;83;20978;-41
2022/05/15 06:39:28;;;;;;;9.18;2.77;;;;;;;15.04;56.06;99159.86;1713701;83;21049;-41
2022/05/15 06:41:59;;;;;;;8.00;3.00;;;;;;;15.03;56.86;99152.84;1713610;83;21251;-41
2022/05/15 06:44:24;;;;;;;7.22;2.80;;;;;;;15.04;57.12;99149.73;1713112;83;20953;-41
2022/05/15 06:46:51;;;;;;;7.03;2.70;;;;;;;15.08;57.03;99152.44;1713544;83;21084;-40
2022/05/15 06:49:18;;;;;;;11.55;3.27;;;;;;;15.11;56.34;99143.45;1713616;83;21061;-41
2022/05/15 06:51:44;;;;;;;13.32;3.40;;;;;;;15.13;55.85;99145.21;1713556;83;21009;-41
2022/05/15 06:54:11;;;;;;;7.08;2.58;;;;;;;15.16;56.60;99141.68;1713538;83;21864;-41
2022/05/15 06:59:24;;;;;;;9.63;3.12;;;;;;;15.33;55.90;99151.00;1713498;83;21005;-41
2022/05/15 07:01:51;;;;;;;7.03;2.72;;;;;;;15.42;55.29;99147.25;1712176;83;21101;-41
2022/05/15 07:04:17;;;;;;;9.73;2.70;;;;;;;15.54;54.75;99146.24;1705627;84;21054;-41
2022/05/15 07:06:44;;;;;;;7.55;2.90;;;;;;;15.65;53.64;99136.63;1705603;83;21282;-41
2022/05/15 07:09:11;;;;;;;4.72;2.30;;;;;;;15.73;53.59;99140.13;1705620;84;21024;-41
2022/05/15 07:11:39;;;;;;;5.08;2.42;;;;;;;15.76;54.02;99144.20;1705722;84;21089;-41
2022/05/15 07:14:08;;;;;;;7.50;2.60;;;;;;;15.84;53.50;99141.60;1705792;84;21042;-41
2022/05/15 07:16:35;;;;;;;7.22;2.47;;;;;;;15.90;52.10;99140.59;1705822;84;21010;-41
2022/05/15 07:19:02;;;;;;;8.15;2.42;;;;;;;15.99;52.33;99138.97;1705812;84;21216;-41
2022/05/15 07:21:28;;;;;;;5.30;2.33;;;;;;;16.15;51.55;99140.44;1705818;84;20962;-41
2022/05/15 07:23:57;;;;;;;6.12;2.55;;;;;;;16.28;51.83;99146.97;1705805;84;21021;-41
2022/05/15 07:26:24;;;;;;;7.42;2.50;;;;;;;16.37;49.82;99131.66;1705985;84;21481;-41
2022/05/15 07:28:53;;;;;;;9.55;2.90;;;;;;;16.44;50.07;99145.88;1707526;83;20977;-41
2022/05/15 07:31:19;;;;;;;8.28;2.70;;;;;;;16.50;49.95;99144.27;1713826;82;21240;-41
2022/05/15 07:33:47;;;;;;;7.87;2.37;;;;;;;16.50;48.78;99147.79;1713788;83;21050;-41
2022/05/15 07:36:14;;;;;;;7.55;3.12;;;;;;;16.49;48.62;99146.23;1713791;83;21520;-41
2022/05/15 07:38:42;;;;;;;7.25;2.77;;;;;;;16.55;49.15;99142.47;1713686;82;21068;-41
2022/05/15 07:41:09;;;;;;;7.40;2.58;;;;;;;16.62;48.84;99149.85;1713669;82;21037;-41
2022/05/15 07:43:37;;;;;;;8.33;2.67;;;;;;;16.63;49.27;99145.35;1713957;82;21156;-41
2022/05/15 07:46:04;;;;;;;7.50;2.70;;;;;;;16.63;49.61;99149.45;1713716;83;20985;-41
2022/05/15 07:48:31;;;;;;;8.88;3.02;;;;;;;16.57;47.65;99147.52;1713850;83;20977;-41
2022/05/15 07:50:58;;;;;;;6.15;2.37;;;;;;;16.46;47.39;99144.87;1713891;83;21500;-41
2022/05/15 07:53:25;;;;;;;5.92;2.40;;;;;;;16.35;47.65;99152.41;1713748;82;21586;-41
2022/05/15 07:55:55;;;;;;;8.45;2.60;;;;;;;16.26;48.04;99152.87;1713805;83;21560;-41
2022/05/15 07:58:23;;;;;;;6.87;2.33;;;;;;;16.20;48.57;99153.09;1714391;83;21055;-41
2022/05/15 08:00:52;;;;;;;9.18;2.47;;;;;;;16.15;49.06;99155.48;1713751;82;20958;-41
2022/05/15 08:03:18;;;;;;;10.43;3.60;;;;;;;16.10;49.02;99147.11;1718568;83;21598;-41
2022/05/15 08:08:32;;;;;;;8.05;2.20;;;;;;;16.10;50.55;99149.84;1721658;83;21144;-41
2022/05/15 08:10:59;;;;;;;6.58;2.75;;;;;;;16.19;49.46;99154.86;1686477;85;20972;-41
2022/05/15 08:13:28;;;;;;;7.75;2.37;;;;;;;16.26;47.78;99139.78;1721500;82;21495;-41
2022/05/15 08:15:55;;;;;;;7.10;2.42;;;;;;;16.31;47.45;99137.98;1686531;84;21549;-41
2022/05/15 08:23:59;;;;;;;6.12;2.50;;;;;;;16.55;45.53;99137.58;1682010;85;21570;-41
2022/05/15 08:26:27;;;;;;;5.17;1.80;;;;;;;16.61;44.57;99135.39;1721761;83;21001;-41
2022/05/15 08:28:54;;;;;;;8.83;2.20;;;;;;;16.71;44.42;99135.09;1686729;85;20953;-41
2022/05/15 08:31:24;;;;;;;7.55;2.02;;;;;;;16.80;44.97;99131.30;1721683;82;21017;-41
2022/05/15 08:33:51;;;;;;;5.35;2.35;;;;;;;16.88;45.21;99136.31;1721649;83;21155;-41
2022/05/15 08:36:17;;;;;;;5.20;2.55;;;;;;;16.95;44.70;99133.48;1721504;83;20973;-41
2022/05/15 08:38:44;;;;;;;5.60;2.00;;;;;;;17.02;44.87;99135.97;1721469;83;21012;-41
2022/05/15 08:41:24;;;;;;;3.72;1.98;;;;;;;17.09;44.39;99127.69;1686622;85;21036;-41
2022/05/15 08:44:13;;;;;;;5.37;2.33;;;;;;;17.16;43.33;99137.19;1721739;82;21049;-41
2022/05/15 08:47:17;;;;;;;8.63;2.65;;;;;;;17.21;43.13;99123.04;1721529;83;21086;-41
2022/05/15 08:49:53;;;;;;;7.87;2.20;;;;;;;17.23;44.22;99133.01;1721479;83;21491;-41
2022/05/15 08:53:03;;;;;;;8.10;2.35;;;;;;;17.28;43.67;99133.31;1721632;83;21073;-41
2022/05/15 08:55:44;;;;;;;7.87;2.60;;;;;;;17.33;43.80;99131.48;1694276;83;21088;-41
2022/05/15 08:58:36;;;;;;;6.78;2.20;;;;;;;17.29;43.23;99144.45;1687001;84;21554;-41
2022/05/15 09:01:08;;;;;;;7.35;2.47;;;;;;;17.25;43.67;99141.58;1721539;83;23100;-41
2022/05/15 09:03:38;;;;;;;5.28;2.30;;;;;;;17.21;44.08;99131.26;1721720;83;20994;-41
2022/05/15 09:06:36;;;;;;;6.55;2.55;;;;;;;17.27;44.31;99130.41;1721599;83;20950;-41
2022/05/15 09:09:52;;;;;;;6.75;2.37;;;;;;;17.30;44.15;99116.47;1721530;83;21104;-41
2022/05/15 09:12:24;;;;;;;5.28;2.15;;;;;;;17.33;44.10;99123.89;1721472;82;21052;-41
2022/05/15 09:15:12;;;;;;;5.60;2.15;;;;;;;17.49;43.45;99123.28;1721477;83;21132;-41
2022/05/15 09:18:04;;;;;;;5.95;2.37;;;;;;;17.63;42.83;99119.78;1686506;84;20972;-41
2022/05/15 09:20:58;;;;;;;6.03;2.27;;;;;;;17.71;41.99;99114.41;1721528;83;21613;-41
2022/05/15 09:23:35;;;;;;;6.80;2.30;;;;;;;17.75;42.20;99112.98;1721439;83;21579;-41
2022/05/15 09:26:22;;;;;;;7.22;2.40;;;;;;;17.77;41.42;99106.47;1721424;83;21355;-41
2022/05/15 09:28:53;;;;;;;8.45;2.30;;;;;;;17.77;41.83;99116.84;1721340;83;21248;-41
2022/05/15 09:31:27;;;;;;;5.78;2.40;;;;;;;17.73;42.41;99117.50;1721853;83;21036;-41
2022/05/15 09:34:04;;;;;;;6.50;2.30;;;;;;;17.70;41.98;99127.15;1721521;83;20949;-41
2022/05/15 09:36:41;;;;;;;7.15;2.40;;;;;;;17.60;42.13;99119.84;1721674;83;20981;-42
2022/05/15 09:39:27;;;;;;;7.87;2.67;;;;;;;17.50;42.79;99135.20;1686694;85;21020;-41
2022/05/15 09:45:22;;;;;;;9.10;3.30;;;;;;;17.64;42.54;99109.01;1665812;85;20949;-41
2022/05/15 09:47:58;;;;;;;7.22;2.62;;;;;;;17.91;41.66;99109.63;1721326;83;21098;-41
2022/05/15 09:50:51;;;;;;;5.50;2.58;;;;;;;18.14;40.99;99098.69;1721540;83;20969;-41
2022/05/15 09:53:38;;;;;;;6.90;2.17;;;;;;;18.27;40.18;99094.15;1686578;85;21515;-41
2022/05/15 09:56:24;;;;;;;6.95;2.30;;;;;;;18.30;40.68;99098.05;1721414;83;21205;-41
2022/05/15 09:58:56;;;;;;;6.72;2.47;;;;;;;18.45;41.72;99095.99;1686778;85;21033;-41
2022/05/15 10:01:42;;;;;;;8.40;2.42;;;;;;;18.77;41.53;99094.09;1721485;83;21057;-41
2022/05/15 10:04:31;;;;;;;5.37;2.17;;;;;;;18.83;40.88;99058.69;1703129;83;21041;-41
2022/05/15 10:07:02;;;;;;;7.33;2.52;;;;;;;19.24;38.61;99098.09;1719403;82;21045;-41
2022/05/15 10:09:37;;;;;;;8.35;2.70;;;;;;;19.31;37.68;99087.73;1682787;85;21730;-41
2022/05/15 10:12:23;;;;;;;10.23;2.47;;;;;;;19.25;36.93;99092.17;1719154;82;21053;-41
2022/05/15 10:15:00;;;;;;;5.80;2.22;;;;;;;19.09;36.95;99092.09;1718764;83;21870;-41
2022/05/15 10:17:26;;;;;;;5.42;2.37;;;;;;;18.94;37.30;99102.59;1719006;83;21006;-41
2022/05/15 10:20:07;;;;;;;4.65;2.25;;;;;;;18.75;37.95;99105.31;1719197;83;21049;-41
2022/05/15 10:22:40;;;;;;;5.60;2.47;;;;;;;18.59;38.16;99102.64;1682085;85;21562;-41
2022/05/15 10:25:21;;;;;;;6.47;2.67;;;;;;;18.47;39.09;99107.94;1719373;82;21009;-41
2022/05/15 10:27:56;;;;;;;6.28;2.25;;;;;;;18.40;39.42;99109.41;1719255;83;21049;-41
2022/05/15 10:30:28;;;;;;;7.33;2.70;;;;;;;18.45;39.28;99113.05;1703164;83;21515;-41
2022/05/15 10:33:00;;;;;;;8.00;2.67;;;;;;;18.62;39.90;99101.04;1719145;83;21041;-41
2022/05/15 10:35:45;;;;;;;6.60;2.50;;;;;;;18.89;39.65;99101.70;1682009;85;22194;-41
2022/05/15 10:38:43;;;;;;;7.50;2.52;;;;;;;19.13;38.64;99105.77;1719076;83;21528;-41
2022/05/15 10:41:37;;;;;;;6.50;2.45;;;;;;;19.18;38.77;99112.14;1719120;83;21017;-41
2022/05/15 10:44:46;;;;;;;14.78;2.90;;;;;;;19.10;38.40;99112.89;1671652;85;21031;-41
2022/05/15 10:47:22;;;;;;;9.88;2.70;;;;;;;19.02;39.52;99118.36;1717112;83;21013;-41
2022/05/15 10:50:19;;;;;;;5.55;2.10;;;;;;;19.10;39.74;99117.80;1703116;83;21140;-41
2022/05/15 10:57:21;;;;;;;9.43;2.67;;;;;;;19.30;39.48;99115.64;1719197;83;21025;-41
2022/05/15 10:59:07;;;;;;;5.45;2.25;;;;;;;19.76;37.63;99119.58;1719449;83;20946;-41
2022/05/15 11:01:44;;;;;;;5.80;2.22;;;;;;;19.81;37.80;99125.17;1658070;85;21052;-41
2022/05/15 11:04:31;;;;;;;9.53;3.20;;;;;;;19.78;37.77;99127.41;1715460;83;21220;-41
2022/05/15 11:07:09;;;;;;;7.42;2.98;;;;;;;19.70;38.98;99130.16;1713816;83;21019;-41
2022/05/15 11:09:58;;;;;;;11.38;3.12;;;;;;;19.73;39.53;99131.45;1714036;82;20978;-41
2022/05/15 11:12:36;;;;;;;16.42;10.05;;;;;;;19.77;38.73;99130.77;1713644;83;21574;-41
2022/05/15 11:15:18;;;;;;;10.88;6.08;;;;;;;19.63;39.02;99131.67;1698685;83;21069;-41
2022/05/15 11:17:59;;;;;;;18.87;10.48;;;;;;;19.37;38.77;99127.25;1713398;82;21219;-41
2022/05/15 11:20:34;;;;;;;11.93;6.10;;;;;;;19.17;39.61;99139.47;1713609;83;21077;-41
2022/05/15 11:23:13;;;;;;;28.25;19.98;;;;;;;19.01;40.03;99142.90;1713435;82;21069;-41
2022/05/15 11:25:54;;;;;;;9.23;6.45;;;;;;;18.87;40.01;99144.53;1713721;83;20990;-41
2022/05/15 11:28:32;;;;;;;10.28;5.80;;;;;;;18.65;40.10;99147.64;1713775;83;21028;-41
2022/05/15 11:31:18;;;;;;;9.08;3.33;;;;;;;18.49;40.94;99151.61;1713641;83;21318;-42
2022/05/15 11:33:54;;;;;;;8.25;3.02;;;;;;;18.46;41.27;99137.35;1713726;83;21029;-41
2022/05/15 11:36:30;;;;;;;10.40;3.35;;;;;;;18.53;41.14;99138.66;1713924;83;21741;-41
2022/05/15 11:39:18;;;;;;;9.03;3.45;;;;;;;18.76;40.74;99141.20;1713523;83;21561;-41
2022/05/15 11:42:08;;;;;;;6.97;2.55;;;;;;;18.94;39.68;99136.93;1713611;83;21053;-41
2022/05/15 11:44:35;;;;;;;5.70;2.33;;;;;;;18.98;39.18;99124.49;1712405;82;21234;-41
2022/05/15 11:47:26;;;;;;;10.32;3.25;;;;;;;18.91;39.06;99130.14;1713601;82;21048;-41
2022/05/15 11:50:10;;;;;;;7.42;2.83;;;;;;;18.79;39.29;99141.72;1713719;83;21053;-41
2022/05/15 11:52:54;;;;;;;13.75;2.77;;;;;;;18.64;38.75;99133.73;1705772;83;21109;-41
2022/05/15 11:55:44;;;;;;;7.00;2.72;;;;;;;18.58;39.47;99142.89;1706196;83;21088;-41
2022/05/15 11:58:26;;;;;;;;;;;;;;;18.66;40.02;99138.81;1716480;83;23124;-41
2022/05/15 12:01:11;;;;;;;5.87;2.40;;;;;;;18.81;38.53;99140.72;1713852;83;20433;-41
2022/05/15 12:03:49;;;;;;;7.55;1.98;;;;;;;18.82;37.41;99144.42;1715464;82;21477;-41
2022/05/15 12:06:26;;;;;;;6.03;2.10;;;;;;;18.99;36.26;99137.04;1721517;83;21084;-41
2022/05/15 12:09:15;;;;;;;5.40;2.30;;;;;;;19.25;35.21;99136.16;1721227;82;21076;-41
2022/05/15 12:11:43;;;;;;;7.42;2.65;;;;;;;19.37;34.81;99123.73;1683465;85;23085;-41
2022/05/15 12:14:32;;;;;;;6.17;2.40;;;;;;;19.34;34.77;99133.61;1721562;83;21020;-41